Time;durP1;ratioP1;P1;durP2;ratioP2;P2;SDS_P1;SDS_P2;PMS_P1;PMS_P2;Temp;Humidity;BMP_temperature;BMP_pressure;BME280_temperature;BME280_humidity;BME280_pressure;Samples;Min_cycle;Max_cycle;Signal;HPM_P1;HPM_P2
2021/09/13 00:02:30;;;;;;;5.00;4.18;;;;;;;15.73;100.00;100575.22;5040263;28;20087;-71
2021/09/13 00:05:14;;;;;;;6.85;4.15;;;;;;;15.70;100.00;100575.56;5053933;28;20050;-71
2021/09/13 00:07:58;;;;;;;5.38;3.92;;;;;;;15.66;100.00;100574.22;5054070;28;20047;-71
2021/09/13 00:10:43;;;;;;;6.93;4.40;;;;;;;15.65;100.00;100572.53;5054898;28;20171;-71
2021/09/13 00:13:30;;;;;;;4.45;3.95;;;;;;;15.64;100.00;100573.53;5053921;28;20072;-71
2021/09/13 00:16:14;;;;;;;8.38;4.28;;;;;;;15.63;100.00;100564.81;5053874;28;20048;-71
2021/09/13 00:18:58;;;;;;;7.25;4.05;;;;;;;15.62;100.00;100565.81;5053811;28;20061;-71
2021/09/13 00:21:42;;;;;;;5.45;4.75;;;;;;;15.62;100.00;100565.81;5054036;28;20055;-71
2021/09/13 00:24:27;;;;;;;5.03;4.03;;;;;;;15.61;100.00;100564.16;5054176;28;20103;-71
2021/09/13 00:27:12;;;;;;;4.90;4.28;;;;;;;15.60;100.00;100567.84;5053795;28;20125;-71
2021/09/13 00:29:56;;;;;;;6.07;4.00;;;;;;;15.58;100.00;100568.00;5053909;28;20418;-72
2021/09/13 00:32:40;;;;;;;4.55;4.10;;;;;;;15.57;100.00;100557.41;5039514;28;20044;-71
2021/09/13 00:35:25;;;;;;;5.57;4.20;;;;;;;15.54;100.00;100574.75;5053735;28;20419;-71
2021/09/13 00:38:09;;;;;;;5.82;4.30;;;;;;;15.53;100.00;100572.22;5053182;28;20076;-71
2021/09/13 00:40:53;;;;;;;6.53;4.35;;;;;;;15.50;100.00;100567.19;5053371;28;20079;-71
2021/09/13 00:43:37;;;;;;;5.85;4.75;;;;;;;15.48;100.00;100575.41;5054638;28;20410;-71
2021/09/13 00:46:21;;;;;;;6.32;4.53;;;;;;;15.46;100.00;100560.44;5039377;28;20487;-71
2021/09/13 00:49:08;;;;;;;5.25;4.75;;;;;;;15.43;100.00;100560.78;5054396;28;20083;-71
2021/09/13 00:51:52;;;;;;;6.15;4.35;;;;;;;15.40;100.00;100563.81;5053374;28;20044;-71
2021/09/13 00:54:36;;;;;;;8.25;4.50;;;;;;;15.36;100.00;100559.78;5053352;28;20044;-71
2021/09/13 00:57:20;;;;;;;7.10;4.70;;;;;;;15.33;100.00;100554.75;5053275;28;20207;-71
2021/09/13 01:00:06;;;;;;;7.82;4.63;;;;;;;15.28;100.00;100547.16;5053223;28;20128;-70
2021/09/13 01:02:49;;;;;;;6.05;4.50;;;;;;;15.25;100.00;100552.88;5053218;28;20094;-71
2021/09/13 01:05:33;;;;;;;7.75;4.90;;;;;;;15.20;100.00;100557.88;5038840;28;20052;-71
2021/09/13 01:08:17;;;;;;;5.72;4.45;;;;;;;15.16;100.00;100559.22;5053736;28;20056;-69
2021/09/13 01:11:01;;;;;;;9.18;4.93;;;;;;;15.12;100.00;100557.03;5038990;28;20494;-72
2021/09/13 01:13:45;;;;;;;5.78;4.65;;;;;;;15.08;100.00;100555.72;5052670;28;20098;-72
2021/09/13 01:16:29;;;;;;;6.32;4.53;;;;;;;15.04;100.00;100549.81;5038902;28;20092;-72
2021/09/13 01:19:13;;;;;;;8.48;5.15;;;;;;;15.04;100.00;100557.03;5053315;28;20052;-71
2021/09/13 01:22:01;;;;;;;6.20;4.95;;;;;;;15.02;100.00;100553.69;5052787;28;20146;-72
2021/09/13 01:24:46;;;;;;;7.13;5.20;;;;;;;15.02;100.00;100549.13;5066848;28;20122;-72
2021/09/13 01:27:29;;;;;;;5.50;4.95;;;;;;;15.04;100.00;100543.59;5053282;28;20048;-72
2021/09/13 01:30:13;;;;;;;7.65;4.85;;;;;;;15.05;100.00;100539.91;5053397;28;20071;-72
2021/09/13 01:32:57;;;;;;;5.28;4.78;;;;;;;15.05;100.00;100546.13;5052414;28;20106;-72
2021/09/13 01:35:41;;;;;;;7.25;5.13;;;;;;;15.04;100.00;100541.78;5052664;28;20095;-72
2021/09/13 01:38:27;;;;;;;6.50;5.70;;;;;;;15.04;100.00;100540.91;5038189;28;20534;-72
2021/09/13 01:41:11;;;;;;;6.18;5.28;;;;;;;15.02;100.00;100540.25;5053245;28;20095;-71
2021/09/13 01:43:55;;;;;;;6.63;5.50;;;;;;;15.03;100.00;100529.34;5038696;28;20055;-72
2021/09/13 01:46:40;;;;;;;8.07;5.00;;;;;;;15.04;100.00;100530.19;5053385;28;20083;-72
2021/09/13 01:49:24;;;;;;;;;;;;;;;15.04;100.00;100527.50;5038263;28;20051;-72
2021/09/13 01:52:08;;;;;;;7.50;5.50;;;;;;;15.03;100.00;100531.19;5052079;28;20003;-72
2021/09/13 01:54:52;;;;;;;6.72;5.55;;;;;;;15.02;100.00;100524.97;5038508;28;20852;-72
2021/09/13 01:57:36;;;;;;;8.30;5.43;;;;;;;15.04;100.00;100522.13;5053001;28;20048;-72
2021/09/13 02:00:19;;;;;;;6.88;5.00;;;;;;;15.04;100.00;100524.81;5052319;28;20048;-72
2021/09/13 02:03:03;;;;;;;6.35;5.00;;;;;;;15.04;100.00;100533.72;5052324;28;20127;-72
2021/09/13 02:05:47;;;;;;;7.22;5.65;;;;;;;15.03;100.00;100526.66;5052021;28;20099;-71
2021/09/13 02:08:31;;;;;;;8.25;5.43;;;;;;;15.01;100.00;100527.84;5052870;28;20530;-72
2021/09/13 02:11:15;;;;;;;7.25;5.60;;;;;;;15.00;100.00;100520.78;5052910;28;20048;-72
2021/09/13 02:13:59;;;;;;;6.63;5.90;;;;;;;14.99;100.00;100519.13;5052160;28;20103;-70
2021/09/13 02:16:43;;;;;;;8.05;6.45;;;;;;;14.97;100.00;100513.03;5052197;28;20047;-72
2021/09/13 02:19:27;;;;;;;10.63;6.45;;;;;;;14.93;100.00;100519.75;5037762;28;20074;-71
2021/09/13 02:22:10;;;;;;;11.43;6.55;;;;;;;14.92;100.00;100515.41;5052131;28;20122;-72
2021/09/13 02:24:54;;;;;;;6.68;5.88;;;;;;;14.93;100.00;100512.56;5051796;28;20090;-72
2021/09/13 02:27:39;;;;;;;9.15;6.35;;;;;;;14.93;100.00;100519.75;5051757;28;20098;-69
2021/09/13 02:30:23;;;;;;;8.40;6.63;;;;;;;14.95;100.00;100523.13;5037996;28;20510;-72
2021/09/13 02:33:07;;;;;;;9.00;6.35;;;;;;;14.93;100.00;100519.75;5079307;22;20056;-70
2021/09/13 02:35:51;;;;;;;7.10;6.03;;;;;;;14.91;100.00;100521.78;5066180;28;20071;-70
2021/09/13 02:38:34;;;;;;;8.40;5.22;;;;;;;14.88;100.00;100527.50;5065846;28;20060;-71
2021/09/13 02:41:18;;;;;;;6.32;5.07;;;;;;;14.83;100.00;100525.31;5066047;28;20052;-71
2021/09/13 02:44:03;;;;;;;7.50;5.20;;;;;;;14.80;100.00;100530.16;5065975;28;20138;-71
2021/09/13 02:46:47;;;;;;;5.63;4.90;;;;;;;14.74;100.00;100526.28;5051586;28;20044;-69
2021/09/13 02:49:31;;;;;;;6.25;5.13;;;;;;;14.68;100.00;100529.63;5052809;28;20052;-70
2021/09/13 02:52:15;;;;;;;6.65;5.15;;;;;;;14.62;100.00;100527.59;5052672;28;20079;-70
2021/09/13 02:54:59;;;;;;;6.43;5.30;;;;;;;14.57;100.00;100532.59;5037520;28;20227;-70
2021/09/13 02:57:43;;;;;;;8.68;6.50;;;;;;;14.56;100.00;100530.06;5052525;28;20423;-70
2021/09/13 03:00:27;;;;;;;5.78;5.20;;;;;;;14.51;100.00;100540.47;5037498;28;20523;-70
2021/09/13 03:03:11;;;;;;;10.30;5.43;;;;;;;14.47;100.00;100539.94;5054977;28;20051;-70
2021/09/13 03:05:54;;;;;;;6.60;5.30;;;;;;;14.45;100.00;100541.09;5041235;28;20415;-70
2021/09/13 03:08:38;;;;;;;9.45;6.25;;;;;;;14.43;100.00;100537.75;5055320;28;20130;-71
2021/09/13 03:11:22;;;;;;;8.23;6.10;;;;;;;14.45;100.00;100525.88;5041144;28;20439;-70
2021/09/13 03:14:07;;;;;;;11.77;6.70;;;;;;;14.45;100.00;100531.22;5054918;28;20048;-70
2021/09/13 03:16:51;;;;;;;7.03;5.70;;;;;;;14.45;100.00;100528.53;5055210;28;20048;-70
2021/09/13 03:19:35;;;;;;;9.95;6.90;;;;;;;14.46;100.00;100526.69;5040933;28;20457;-70
2021/09/13 03:22:19;;;;;;;8.05;6.43;;;;;;;14.47;100.00;100528.41;5054948;28;20415;-70
2021/09/13 03:25:04;;;;;;;10.20;6.75;;;;;;;14.48;100.00;100525.53;5054993;28;20083;-70
2021/09/13 03:27:47;;;;;;;;;;;;;;;14.48;100.00;100520.16;5041019;28;20107;-70
2021/09/13 03:30:31;;;;;;;12.48;6.80;;;;;;;14.46;100.00;100522.19;5055981;28;20015;-70
2021/09/13 03:33:15;;;;;;;7.57;6.78;;;;;;;14.47;100.00;100520.34;5055763;28;20549;-71
2021/09/13 03:35:59;;;;;;;7.72;6.18;;;;;;;14.47;100.00;100525.72;5054712;28;20095;-70
2021/09/13 03:38:42;;;;;;;10.98;6.57;;;;;;;14.48;100.00;100520.16;5055473;28;20077;-70
2021/09/13 03:41:26;;;;;;;8.32;6.43;;;;;;;14.51;100.00;100519.00;5054904;28;20098;-70
2021/09/13 03:44:10;;;;;;;10.07;6.60;;;;;;;14.53;100.00;100525.03;5054694;28;20144;-70
2021/09/13 03:46:55;;;;;;;10.98;6.68;;;;;;;14.56;100.00;100527.38;5040593;28;20407;-70
2021/09/13 03:49:39;;;;;;;10.05;5.90;;;;;;;14.58;100.00;100525.41;5055796;28;20094;-71
2021/09/13 03:52:23;;;;;;;11.10;5.65;;;;;;;14.59;100.00;100516.34;5054386;28;20051;-70
2021/09/13 03:55:07;;;;;;;6.75;5.65;;;;;;;14.56;100.00;100522.03;5055202;28;20110;-71
2021/09/13 03:57:51;;;;;;;6.93;5.15;;;;;;;14.55;100.00;100520.34;5054419;28;20143;-70
2021/09/13 04:00:36;;;;;;;7.30;5.55;;;;;;;14.60;100.00;100512.66;5054384;28;20043;-71
2021/09/13 04:03:25;;;;;;;6.50;4.97;;;;;;;14.64;100.00;100524.72;5054076;28;20051;-71
2021/09/13 04:06:18;;;;;;;7.93;5.53;;;;;;;14.60;100.00;100523.41;5054346;28;20048;-70
2021/09/13 04:09:43;;;;;;;6.03;5.20;;;;;;;14.65;100.00;100521.03;5054330;28;20071;-70
2021/09/13 04:12:12;;;;;;;8.45;5.70;;;;;;;14.69;100.00;100523.25;5054215;28;20095;-70
2021/09/13 04:14:56;;;;;;;8.57;5.65;;;;;;;14.69;100.00;100523.25;5039327;28;20407;-70
2021/09/13 04:17:40;;;;;;;8.75;5.47;;;;;;;14.79;100.00;100528.47;5055063;28;20510;-70
2021/09/13 04:20:24;;;;;;;9.88;6.00;;;;;;;14.79;100.00;100525.78;5053889;28;20480;-68
2021/09/13 04:23:08;;;;;;;6.60;5.90;;;;;;;14.81;100.00;100526.47;5039673;28;20076;-70
2021/09/13 04:25:52;;;;;;;12.82;7.32;;;;;;;14.85;100.00;100519.75;5053811;28;20085;-70
2021/09/13 04:28:39;;;;;;;8.57;6.68;;;;;;;14.84;100.00;100524.28;5040148;28;20446;-69
2021/09/13 04:31:23;;;;;;;9.55;6.25;;;;;;;14.88;100.00;100522.94;5053792;28;20048;-70
2021/09/13 04:34:08;;;;;;;9.73;7.03;;;;;;;14.93;100.00;100519.75;5053268;28;20052;-70
2021/09/13 04:36:52;;;;;;;6.65;5.93;;;;;;;14.98;100.00;100525.50;5039479;28;20043;-70
2021/09/13 04:39:36;;;;;;;7.53;6.65;;;;;;;15.00;100.00;100529.66;5053638;28;20056;-71
2021/09/13 04:42:20;;;;;;;7.78;6.40;;;;;;;15.00;100.00;100520.78;5053245;28;20518;-71
2021/09/13 04:45:04;;;;;;;8.38;5.93;;;;;;;15.05;100.00;100518.44;5053199;28;20048;-69
2021/09/13 04:47:48;;;;;;;9.98;6.72;;;;;;;15.10;100.00;100518.78;5053453;28;20480;-70
2021/09/13 04:50:33;;;;;;;10.20;6.68;;;;;;;15.15;100.00;100513.75;5039335;28;20113;-70
2021/09/13 04:53:17;;;;;;;6.65;5.82;;;;;;;15.17;100.00;100512.56;5039143;28;20123;-71
2021/09/13 04:56:01;;;;;;;7.95;6.20;;;;;;;15.20;100.00;100520.28;5054067;28;20091;-70
2021/09/13 04:58:45;;;;;;;9.68;6.68;;;;;;;15.21;100.00;100521.13;5054166;28;20106;-70
2021/09/13 05:01:29;;;;;;;7.70;6.60;;;;;;;15.17;100.00;100525.16;5052889;28;20047;-71
2021/09/13 05:04:12;;;;;;;8.38;6.60;;;;;;;15.19;100.00;100521.28;5052774;28;20470;-70
2021/09/13 05:06:56;;;;;;;11.27;7.65;;;;;;;15.17;100.00;100517.09;5053204;28;20044;-70
2021/09/13 05:09:40;;;;;;;12.27;7.75;;;;;;;15.17;100.00;100517.94;5052842;28;20056;-70
2021/09/13 05:12:24;;;;;;;7.20;6.43;;;;;;;15.18;100.00;100514.25;5052641;28;20415;-70
2021/09/13 05:15:08;;;;;;;9.10;6.22;;;;;;;15.16;100.00;100510.03;5039105;28;20090;-70
2021/09/13 05:17:52;;;;;;;12.02;7.25;;;;;;;15.19;100.00;100515.09;5053847;28;20068;-70
2021/09/13 05:20:36;;;;;;;10.23;6.22;;;;;;;15.15;100.00;100516.44;5052673;28;20055;-70
2021/09/13 05:23:20;;;;;;;9.48;6.70;;;;;;;15.16;100.00;100515.41;5038720;28;20110;-70
2021/09/13 05:26:05;;;;;;;7.55;6.30;;;;;;;15.19;100.00;100523.97;5038456;28;20079;-70
2021/09/13 05:28:48;;;;;;;9.52;6.10;;;;;;;15.26;100.00;100521.47;5052595;28;20102;-71
2021/09/13 05:31:32;;;;;;;8.95;6.00;;;;;;;15.26;100.00;100513.41;5052627;28;20068;-70
2021/09/13 05:34:16;;;;;;;8.80;6.57;;;;;;;15.30;100.00;100529.03;5052564;28;20510;-71
2021/09/13 05:37:00;;;;;;;6.32;5.72;;;;;;;15.42;100.00;100532.25;5052441;28;20044;-69
2021/09/13 05:39:44;;;;;;;10.75;6.38;;;;;;;15.41;100.00;100530.56;5052300;28;20056;-70
2021/09/13 05:42:28;;;;;;;11.15;5.80;;;;;;;15.43;100.00;100534.75;5052392;28;20510;-70
2021/09/13 05:45:12;;;;;;;9.60;6.63;;;;;;;15.45;100.00;100538.13;5052219;28;20106;-71
2021/09/13 05:47:56;;;;;;;9.73;5.97;;;;;;;15.44;100.00;100536.44;5052650;28;20044;-70
2021/09/13 05:50:41;;;;;;;7.05;5.75;;;;;;;15.47;100.00;100535.25;5052429;28;20043;-70
2021/09/13 05:53:25;;;;;;;10.02;5.72;;;;;;;15.48;100.00;100537.78;5053210;28;20052;-71
2021/09/13 05:56:09;;;;;;;14.65;6.45;;;;;;;15.51;100.00;100537.44;5052595;28;20175;-70
2021/09/13 05:58:53;;;;;;;13.73;5.78;;;;;;;15.57;100.00;100538.59;5052970;28;20505;-70
2021/09/13 06:01:37;;;;;;;7.20;5.72;;;;;;;15.63;100.00;100544.13;5051998;28;20044;-70
2021/09/13 06:04:21;;;;;;;9.43;6.20;;;;;;;15.65;100.00;100545.66;5051962;28;20529;-71
2021/09/13 06:07:05;;;;;;;6.97;5.43;;;;;;;15.74;100.00;100541.94;5052220;28;20043;-70
2021/09/13 06:09:49;;;;;;;10.73;6.20;;;;;;;15.79;100.00;100552.19;5038164;28;20175;-69
2021/09/13 06:12:33;;;;;;;10.15;6.28;;;;;;;15.88;100.00;100546.63;5052246;28;20179;-70
2021/09/13 06:15:17;;;;;;;12.93;6.57;;;;;;;15.90;100.00;100560.75;5053119;28;20091;-70
2021/09/13 06:18:01;;;;;;;11.10;5.85;;;;;;;15.90;100.00;100559.91;5052060;28;20044;-72
2021/09/13 06:20:45;;;;;;;8.23;6.32;;;;;;;15.95;100.00;100562.94;5052086;28;20048;-71
2021/09/13 06:23:29;;;;;;;12.20;7.13;;;;;;;16.00;100.00;100560.56;5037765;28;20423;-70
2021/09/13 06:26:13;;;;;;;12.48;7.68;;;;;;;15.95;100.00;100568.31;5037612;28;20098;-70
2021/09/13 06:28:57;;;;;;;9.90;6.82;;;;;;;15.97;100.00;100566.28;5051993;28;20043;-71
2021/09/13 06:31:41;;;;;;;11.75;6.82;;;;;;;16.05;100.00;100572.47;5051988;28;20505;-71
2021/09/13 06:34:26;;;;;;;9.32;7.38;;;;;;;16.06;100.00;100571.44;5051936;28;20470;-70
2021/09/13 06:37:10;;;;;;;10.10;7.60;;;;;;;15.99;100.00;100577.69;5054433;28;20545;-70
2021/09/13 06:39:58;;;;;;;10.85;7.78;;;;;;;16.01;100.00;100581.91;5055902;28;20072;-71
2021/09/13 06:42:42;;;;;;;10.10;8.27;;;;;;;16.01;100.00;100584.59;5055706;28;20047;-71
2021/09/13 06:45:26;;;;;;;12.32;7.97;;;;;;;16.07;100.00;100583.06;5055502;28;20565;-70
2021/09/13 06:48:11;;;;;;;10.85;7.82;;;;;;;16.12;100.00;100592.28;5056452;28;20510;-71
2021/09/13 06:50:55;;;;;;;13.77;8.98;;;;;;;16.21;100.00;100575.13;5055675;28;20044;-71
2021/09/13 06:53:39;;;;;;;14.55;8.48;;;;;;;16.28;100.00;100570.72;5055481;28;20136;-70
2021/09/13 06:56:23;;;;;;;12.95;8.80;;;;;;;16.37;100.00;100574.28;5056592;28;20408;-71
2021/09/13 06:59:07;;;;;;;9.82;7.60;;;;;;;16.46;100.00;100576.75;5055590;28;20056;-71
2021/09/13 07:01:51;;;;;;;12.80;8.20;;;;;;;16.50;100.00;100575.38;5055507;28;20519;-70
2021/09/13 07:04:35;;;;;;;11.15;7.22;;;;;;;16.59;100.00;100571.63;5055389;28;20048;-71
2021/09/13 07:07:19;;;;;;;12.18;7.32;;;;;;;16.65;99.42;100573.63;5041315;28;20094;-70
2021/09/13 07:10:05;;;;;;;11.02;7.00;;;;;;;16.70;99.12;100571.25;5056283;28;20411;-71
2021/09/13 07:12:49;;;;;;;12.35;6.90;;;;;;;16.74;99.43;100572.59;5055178;28;20461;-71
2021/09/13 07:15:33;;;;;;;9.98;7.47;;;;;;;16.80;99.00;100585.31;5055231;28;20086;-71
2021/09/13 07:18:17;;;;;;;10.48;8.23;;;;;;;16.83;98.72;100578.75;5054999;28;20051;-71
2021/09/13 07:21:01;;;;;;;9.20;6.88;;;;;;;16.96;98.02;100576.31;5054862;28;20099;-71
2021/09/13 07:23:44;;;;;;;10.77;6.78;;;;;;;17.06;97.71;100580.47;5055249;28;20114;-71
2021/09/13 07:26:29;;;;;;;11.30;7.07;;;;;;;17.20;95.54;100576.19;5054845;28;20052;-71
2021/09/13 07:29:14;;;;;;;10.57;7.53;;;;;;;17.18;95.72;100581.72;5055192;28;20403;-71
2021/09/13 07:32:00;;;;;;;12.05;7.63;;;;;;;17.29;96.20;100581.31;5040660;28;20048;-71
2021/09/13 07:34:44;;;;;;;8.48;6.35;;;;;;;17.41;94.57;100574.50;5055085;28;20082;-70
2021/09/13 07:37:28;;;;;;;10.98;7.10;;;;;;;17.44;94.42;100581.41;5054565;28;20124;-71
2021/09/13 07:40:13;;;;;;;10.10;6.53;;;;;;;17.52;94.63;100579.47;5055494;28;20052;-71
2021/09/13 07:42:57;;;;;;;10.77;6.93;;;;;;;17.65;94.79;100589.66;5054351;28;20047;-70
2021/09/13 07:45:40;;;;;;;10.95;6.85;;;;;;;17.73;94.53;100598.50;5040357;28;20043;-71
2021/09/13 07:48:24;;;;;;;8.07;6.85;;;;;;;17.83;94.19;100593.69;5053410;28;20147;-70
2021/09/13 07:51:08;;;;;;;10.68;6.97;;;;;;;17.83;93.16;100593.69;5054643;28;20505;-71
2021/09/13 07:53:52;;;;;;;9.13;7.07;;;;;;;17.90;93.88;100589.25;5040202;28;20594;-70
2021/09/13 07:56:36;;;;;;;13.05;7.57;;;;;;;17.98;93.97;100586.47;5055415;28;20106;-71
2021/09/13 07:59:20;;;;;;;13.27;7.50;;;;;;;18.05;93.84;100590.13;5054177;28;20047;-71
2021/09/13 08:02:04;;;;;;;13.63;6.68;;;;;;;18.12;93.27;100587.53;5055291;28;20437;-71
2021/09/13 08:04:48;;;;;;;6.95;6.25;;;;;;;18.23;92.87;100585.19;5040161;28;20128;-70
2021/09/13 08:07:32;;;;;;;13.90;7.35;;;;;;;18.27;93.27;100597.31;5040418;28;20109;-71
2021/09/13 08:10:16;;;;;;;11.02;6.57;;;;;;;18.33;93.92;100601.97;5053942;28;20048;-71
2021/09/13 08:13:00;;;;;;;11.00;6.88;;;;;;;18.41;93.21;100599.19;5054762;28;20048;-69
2021/09/13 08:15:44;;;;;;;11.10;7.18;;;;;;;18.50;92.98;100598.09;5040063;28;20044;-71
2021/09/13 08:18:27;;;;;;;9.50;7.18;;;;;;;18.66;92.38;100604.13;5040233;28;20469;-70
2021/09/13 08:21:11;;;;;;;9.32;6.95;;;;;;;18.79;91.97;100606.97;5055017;28;20075;-71
2021/09/13 08:23:56;;;;;;;12.15;6.60;;;;;;;18.99;90.98;100610.75;5053646;28;20052;-71
2021/09/13 08:26:40;;;;;;;9.05;7.15;;;;;;;19.00;88.65;100617.03;5053572;28;20048;-71
2021/09/13 08:29:24;;;;;;;11.40;5.95;;;;;;;19.07;88.45;100623.34;5055097;28;20051;-70
2021/09/13 08:32:08;;;;;;;8.65;6.03;;;;;;;19.27;88.80;100614.44;5039283;28;20060;-71
2021/09/13 08:34:53;;;;;;;8.55;6.65;;;;;;;19.42;87.03;100619.81;5071386;23;20403;-73
2021/09/13 08:37:37;;;;;;;9.82;6.07;;;;;;;19.54;85.60;100610.16;5054659;28;20079;-71
2021/09/13 08:40:21;;;;;;;8.70;5.82;;;;;;;19.63;84.66;100620.66;5054683;28;20047;-72
2021/09/13 08:43:05;;;;;;;8.27;5.63;;;;;;;19.80;82.68;100623.94;5053627;28;20403;-72
2021/09/13 08:45:57;;;;;;;8.02;4.93;;;;;;;19.92;82.50;100614.25;5047701;28;20417;-71
2021/09/13 08:48:45;;;;;;;8.20;5.63;;;;;;;19.98;81.23;100618.84;5033526;28;20095;-72
2021/09/13 08:51:30;;;;;;;7.72;5.20;;;;;;;20.11;81.21;100619.03;5034779;28;20503;-72
2021/09/13 08:54:14;;;;;;;7.28;5.30;;;;;;;20.28;79.91;100620.38;5047403;28;20064;-72
2021/09/13 08:57:04;;;;;;;8.55;4.93;;;;;;;20.45;78.18;100627.16;5034129;28;20575;-72
2021/09/13 08:59:48;;;;;;;8.43;4.32;;;;;;;20.61;76.74;100629.56;5032755;28;20052;-71
2021/09/13 09:02:33;;;;;;;6.47;4.22;;;;;;;20.75;75.77;100629.44;5047330;28;20072;-72
2021/09/13 09:05:17;;;;;;;5.50;3.70;;;;;;;20.95;75.19;100624.13;5046924;28;20515;-71
2021/09/13 09:08:00;;;;;;;5.22;3.67;;;;;;;21.17;72.67;100625.66;5033059;28;20049;-72
2021/09/13 09:10:53;;;;;;;8.32;3.75;;;;;;;21.37;71.94;100636.38;5033112;28;20048;-72
2021/09/13 09:13:43;;;;;;;5.18;4.10;;;;;;;21.45;69.35;100628.03;5047299;28;20530;-72
2021/09/13 09:16:27;;;;;;;8.63;3.47;;;;;;;21.74;68.76;100627.72;5032945;28;20040;-72
2021/09/13 09:19:18;;;;;;;5.45;3.42;;;;;;;22.02;68.22;100625.63;5032777;28;20119;-71
2021/09/13 09:22:26;;;;;;;7.35;3.88;;;;;;;22.35;66.26;100629.16;5033012;28;20052;-72
2021/09/13 09:25:27;;;;;;;6.57;3.88;;;;;;;22.48;63.37;100620.16;5033723;28;20048;-72
2021/09/13 09:28:14;;;;;;;5.90;3.60;;;;;;;22.91;63.78;100618.59;5046930;28;20048;-72
2021/09/13 09:30:58;;;;;;;6.20;3.42;;;;;;;23.43;61.74;100624.63;5046528;28;20088;-72
2021/09/13 09:33:43;;;;;;;6.43;3.75;;;;;;;24.12;59.44;100622.69;5032458;28;20048;-71
2021/09/13 09:36:27;;;;;;;3.97;2.95;;;;;;;24.89;55.99;100617.50;5033689;28;20040;-71
2021/09/13 09:39:12;;;;;;;3.60;3.08;;;;;;;26.08;52.82;100621.91;5046844;28;20120;-71
2021/09/13 09:41:57;;;;;;;3.88;2.63;;;;;;;28.03;48.32;100618.69;5032596;28;20480;-72
2021/09/13 09:44:46;;;;;;;4.63;3.10;;;;;;;30.23;41.15;100619.59;5032304;28;20051;-71
2021/09/13 09:47:31;;;;;;;5.13;3.13;;;;;;;32.09;36.12;100619.28;5033835;28;20041;-72
2021/09/13 09:50:27;;;;;;;4.18;3.05;;;;;;;34.50;32.63;100612.34;5032243;28;20072;-71
2021/09/13 09:53:16;;;;;;;6.63;3.45;;;;;;;36.03;30.10;100607.03;5032294;28;20523;-71
2021/09/13 09:56:12;;;;;;;5.15;3.30;;;;;;;37.35;28.38;100601.13;5032341;28;20411;-72
2021/09/13 09:59:07;;;;;;;4.95;2.83;;;;;;;37.99;26.29;100603.53;5032680;28;20053;-71
2021/09/13 10:01:57;;;;;;;4.82;3.28;;;;;;;38.55;26.05;100600.16;5033134;28;20139;-71
2021/09/13 10:04:42;;;;;;;4.80;2.42;;;;;;;39.26;25.57;100591.44;5032060;28;20060;-72
2021/09/13 10:07:26;;;;;;;3.67;3.03;;;;;;;39.77;24.37;100592.31;5032092;28;20120;-71
2021/09/13 10:10:09;;;;;;;5.03;3.00;;;;;;;39.73;23.89;100589.38;5046109;28;20115;-72
2021/09/13 10:12:53;;;;;;;6.10;3.15;;;;;;;40.53;23.19;100583.00;5045514;28;20056;-71
2021/09/13 10:15:37;;;;;;;3.78;3.10;;;;;;;40.93;22.71;100568.38;5032535;28;20550;-71
2021/09/13 10:18:21;;;;;;;3.28;2.97;;;;;;;39.88;23.58;100563.72;5046318;28;20053;-71
2021/09/13 10:21:05;;;;;;;10.18;3.50;;;;;;;40.63;23.06;100561.13;5046256;28;20053;-71
2021/09/13 10:23:49;;;;;;;3.70;2.80;;;;;;;41.44;22.24;100558.84;5032007;28;20052;-72
2021/09/13 10:26:35;;;;;;;3.60;3.20;;;;;;;42.56;21.41;100552.63;5046237;28;20471;-72
2021/09/13 10:29:24;;;;;;;3.90;2.92;;;;;;;42.55;21.05;100550.19;5032207;28;20095;-73
2021/09/13 10:32:13;;;;;;;6.05;3.25;;;;;;;41.58;21.38;100549.03;5032141;28;20132;-72
2021/09/13 10:34:57;;;;;;;3.72;3.35;;;;;;;41.65;21.55;100546.47;5032675;28;20180;-72
2021/09/13 10:37:44;;;;;;;5.50;3.25;;;;;;;41.78;21.58;100542.59;5046141;28;20099;-71
2021/09/13 10:40:29;;;;;;;6.68;3.40;;;;;;;41.94;21.18;100540.78;5046105;28;20076;-72
2021/09/13 10:43:20;;;;;;;6.88;3.30;;;;;;;42.34;21.43;100550.25;5045619;28;20044;-72
2021/09/13 10:46:04;;;;;;;5.93;3.20;;;;;;;42.88;20.22;100537.69;5046024;28;20120;-71
2021/09/13 10:49:11;;;;;;;5.22;2.85;;;;;;;43.60;19.94;100532.78;5031721;28;20571;-72
2021/09/13 10:52:29;;;;;;;3.65;3.35;;;;;;;43.31;20.31;100537.94;5032935;28;20048;-72
2021/09/13 10:55:13;;;;;;;3.25;2.95;;;;;;;44.44;19.37;100532.38;5032816;28;20132;-72
2021/09/13 10:58:09;;;;;;;4.15;3.17;;;;;;;43.82;19.65;100531.44;5032687;28;20112;-72
2021/09/13 11:00:53;;;;;;;3.95;3.55;;;;;;;43.94;19.17;100526.56;5032831;28;20075;-72
2021/09/13 11:03:39;;;;;;;4.45;3.40;;;;;;;43.92;19.37;100528.13;5045804;28;20048;-72
2021/09/13 11:06:31;;;;;;;3.55;3.20;;;;;;;43.86;19.62;100521.13;5031791;28;20514;-72
2021/09/13 11:09:18;;;;;;;7.22;3.13;;;;;;;44.03;19.81;100515.19;5031826;28;20048;-72
2021/09/13 11:12:07;;;;;;;3.88;3.08;;;;;;;44.53;19.12;100515.34;5031788;28;20084;-72
2021/09/13 11:14:51;;;;;;;3.20;3.00;;;;;;;44.86;18.65;100512.97;5032536;28;20057;-72
2021/09/13 11:17:35;;;;;;;3.92;3.17;;;;;;;45.10;18.43;100513.53;5045390;28;20068;-72
2021/09/13 11:20:27;;;;;;;3.33;3.10;;;;;;;45.35;18.53;100514.13;5031385;28;20107;-71
2021/09/13 11:23:11;;;;;;;3.60;3.30;;;;;;;45.42;18.08;100503.00;5032984;28;20048;-72
2021/09/13 11:25:56;;;;;;;3.65;3.35;;;;;;;45.66;18.32;100497.09;5036044;28;20403;-71
2021/09/13 11:29:00;;;;;;;5.68;3.55;;;;;;;45.83;17.51;100497.44;5049478;28;20114;-72
2021/09/13 11:31:49;;;;;;;3.83;3.53;;;;;;;45.48;17.90;100498.69;5048889;28;20047;-72
2021/09/13 11:34:50;;;;;;;3.47;3.17;;;;;;;44.78;18.35;100486.66;5020641;28;20426;-71
2021/09/13 11:37:34;;;;;;;3.80;3.03;;;;;;;45.06;18.28;100478.06;5049086;28;20080;-72
2021/09/13 11:40:24;;;;;;;4.28;3.40;;;;;;;44.81;19.00;100488.75;5048969;28;20103;-71
2021/09/13 11:43:09;;;;;;;6.47;3.22;;;;;;;44.83;18.78;100479.94;5034618;28;20534;-71
2021/09/13 11:46:04;;;;;;;3.05;2.85;;;;;;;45.29;18.38;100487.44;5034478;28;20052;-71
2021/09/13 11:48:48;;;;;;;5.10;3.30;;;;;;;44.84;18.39;100487.22;5035676;28;20117;-72
2021/09/13 11:51:32;;;;;;;4.35;3.22;;;;;;;44.50;18.68;100487.94;5034718;28;20156;-72
2021/09/13 11:54:15;;;;;;;7.50;3.30;;;;;;;44.94;18.50;100481.00;5034350;28;20443;-72
2021/09/13 11:57:00;;;;;;;3.53;3.10;;;;;;;44.86;18.50;100479.22;5034868;28;20045;-72
2021/09/13 11:59:50;;;;;;;3.85;3.40;;;;;;;44.32;19.33;100481.06;5048869;28;20527;-71
2021/09/13 12:02:35;;;;;;;3.75;3.35;;;;;;;44.68;19.03;100480.75;5034521;28;20044;-72
2021/09/13 12:05:27;;;;;;;3.28;3.00;;;;;;;44.71;18.92;100480.84;5048128;28;20048;-72
2021/09/13 12:08:14;;;;;;;;;;;;;;;44.67;18.57;100465.88;5048558;28;20048;-72
2021/09/13 12:11:00;;;;;;;3.28;2.97;;;;;;;45.08;18.35;100467.25;5047919;28;19920;-72
2021/09/13 12:13:44;;;;;;;3.45;3.15;;;;;;;45.47;18.23;100452.81;5033910;28;20428;-71
2021/09/13 12:16:28;;;;;;;3.28;3.08;;;;;;;45.64;17.91;100449.56;5034186;28;20083;-71
2021/09/13 12:19:19;;;;;;;3.72;2.92;;;;;;;45.40;18.06;100449.06;5047978;28;20140;-72
2021/09/13 12:22:04;;;;;;;3.33;3.03;;;;;;;44.97;18.44;100441.66;5033847;28;20543;-72
2021/09/13 12:24:48;;;;;;;4.03;3.17;;;;;;;44.97;18.52;100450.09;5047728;28;20649;-72
2021/09/13 12:27:39;;;;;;;3.70;3.40;;;;;;;44.36;18.87;100448.22;5033880;28;20416;-71
2021/09/13 12:30:31;;;;;;;3.15;2.90;;;;;;;44.82;18.80;100441.72;5033967;28;20048;-72
2021/09/13 12:33:15;;;;;;;4.18;3.00;;;;;;;44.00;19.46;100434.38;5034705;28;20044;-72
2021/09/13 12:36:15;;;;;;;5.07;3.30;;;;;;;42.44;20.58;100431.28;5047301;28;20048;-71
2021/09/13 12:39:07;;;;;;;3.25;2.95;;;;;;;43.46;20.57;100424.88;5033521;28;20095;-70
2021/09/13 12:41:51;;;;;;;3.55;3.10;;;;;;;43.46;20.10;100419.25;5033721;28;20052;-71
2021/09/13 12:44:35;;;;;;;5.07;3.33;;;;;;;43.74;19.51;100417.25;5047414;28;20110;-72